sensor_id;sensor_type;location;lat;lon;timestamp;P1;durP1;ratioP1;P2;durP2;ratioP2
80985;SDS011;70451;51.226;6.412;2023-06-22T00:00:42;6.55;;;4.40;;
80985;SDS011;70451;51.226;6.412;2023-06-22T00:02:57;6.40;;;4.40;;
80985;SDS011;70451;51.226;6.412;2023-06-22T00:05:13;5.05;;;4.45;;
80985;SDS011;70451;51.226;6.412;2023-06-22T00:07:28;5.90;;;4.80;;
80985;SDS011;70451;51.226;6.412;2023-06-22T00:09:44;6.05;;;4.47;;
80985;SDS011;70451;51.226;6.412;2023-06-22T00:11:59;7.03;;;5.40;;
80985;SDS011;70451;51.226;6.412;2023-06-22T00:14:14;6.45;;;4.68;;
80985;SDS011;70451;51.226;6.412;2023-06-22T00:16:31;5.53;;;4.70;;
80985;SDS011;70451;51.226;6.412;2023-06-22T00:18:47;5.70;;;4.85;;
80985;SDS011;70451;51.226;6.412;2023-06-22T00:21:03;6.78;;;5.47;;
80985;SDS011;70451;51.226;6.412;2023-06-22T00:23:19;9.18;;;5.57;;
80985;SDS011;70451;51.226;6.412;2023-06-22T00:25:35;8.20;;;5.95;;
80985;SDS011;70451;51.226;6.412;2023-06-22T00:27:51;7.53;;;5.50;;
80985;SDS011;70451;51.226;6.412;2023-06-22T00:30:07;7.47;;;5.75;;
80985;SDS011;70451;51.226;6.412;2023-06-22T00:32:22;11.15;;;5.70;;
80985;SDS011;70451;51.226;6.412;2023-06-22T00:34:38;7.07;;;6.38;;
80985;SDS011;70451;51.226;6.412;2023-06-22T00:36:53;9.18;;;6.82;;
80985;SDS011;70451;51.226;6.412;2023-06-22T00:39:08;8.07;;;6.22;;
80985;SDS011;70451;51.226;6.412;2023-06-22T00:41:24;9.45;;;6.75;;
80985;SDS011;70451;51.226;6.412;2023-06-22T00:43:43;9.70;;;6.72;;
80985;SDS011;70451;51.226;6.412;2023-06-22T00:45:58;7.75;;;5.72;;
80985;SDS011;70451;51.226;6.412;2023-06-22T00:48:14;11.27;;;6.63;;
80985;SDS011;70451;51.226;6.412;2023-06-22T00:50:30;7.68;;;6.15;;
80985;SDS011;70451;51.226;6.412;2023-06-22T00:52:50;9.02;;;6.32;;
80985;SDS011;70451;51.226;6.412;2023-06-22T00:55:07;10.38;;;6.10;;
80985;SDS011;70451;51.226;6.412;2023-06-22T00:57:24;8.25;;;6.22;;
80985;SDS011;70451;51.226;6.412;2023-06-22T00:59:45;9.25;;;6.68;;
80985;SDS011;70451;51.226;6.412;2023-06-22T01:02:03;11.07;;;6.72;;
80985;SDS011;70451;51.226;6.412;2023-06-22T01:04:18;7.82;;;6.25;;
80985;SDS011;70451;51.226;6.412;2023-06-22T01:06:35;9.85;;;7.55;;
80985;SDS011;70451;51.226;6.412;2023-06-22T01:09:03;8.98;;;6.72;;
80985;SDS011;70451;51.226;6.412;2023-06-22T01:11:25;8.23;;;6.90;;
80985;SDS011;70451;51.226;6.412;2023-06-22T01:18:39;8.90;;;7.15;;
80985;SDS011;70451;51.226;6.412;2023-06-22T01:20:57;9.90;;;6.82;;
80985;SDS011;70451;51.226;6.412;2023-06-22T01:30:59;10.38;;;6.68;;
80985;SDS011;70451;51.226;6.412;2023-06-22T01:33:20;12.82;;;6.90;;
80985;SDS011;70451;51.226;6.412;2023-06-22T01:35:36;8.95;;;6.50;;
80985;SDS011;70451;51.226;6.412;2023-06-22T01:37:53;10.52;;;6.75;;
80985;SDS011;70451;51.226;6.412;2023-06-22T01:40:09;11.13;;;7.25;;
80985;SDS011;70451;51.226;6.412;2023-06-22T01:42:25;11.73;;;7.63;;
80985;SDS011;70451;51.226;6.412;2023-06-22T01:44:41;9.95;;;7.70;;
80985;SDS011;70451;51.226;6.412;2023-06-22T01:46:56;10.80;;;7.88;;
80985;SDS011;70451;51.226;6.412;2023-06-22T01:49:11;12.05;;;8.38;;
80985;SDS011;70451;51.226;6.412;2023-06-22T01:51:27;7.85;;;6.70;;
80985;SDS011;70451;51.226;6.412;2023-06-22T01:53:43;10.85;;;7.53;;
80985;SDS011;70451;51.226;6.412;2023-06-22T01:55:58;11.25;;;7.30;;
80985;SDS011;70451;51.226;6.412;2023-06-22T01:58:13;10.15;;;8.07;;
80985;SDS011;70451;51.226;6.412;2023-06-22T02:00:31;11.90;;;8.00;;
80985;SDS011;70451;51.226;6.412;2023-06-22T02:02:56;11.98;;;8.00;;
80985;SDS011;70451;51.226;6.412;2023-06-22T02:05:18;11.95;;;8.13;;
80985;SDS011;70451;51.226;6.412;2023-06-22T02:07:36;11.27;;;8.60;;
80985;SDS011;70451;51.226;6.412;2023-06-22T02:09:56;10.05;;;7.43;;
80985;SDS011;70451;51.226;6.412;2023-06-22T02:12:16;10.10;;;7.70;;
80985;SDS011;70451;51.226;6.412;2023-06-22T02:14:33;11.20;;;7.75;;
80985;SDS011;70451;51.226;6.412;2023-06-22T02:16:50;10.35;;;7.55;;
80985;SDS011;70451;51.226;6.412;2023-06-22T02:19:06;11.57;;;7.88;;
80985;SDS011;70451;51.226;6.412;2023-06-22T02:21:22;12.88;;;8.77;;
80985;SDS011;70451;51.226;6.412;2023-06-22T02:23:37;10.45;;;8.35;;
80985;SDS011;70451;51.226;6.412;2023-06-22T02:25:52;11.38;;;7.32;;
80985;SDS011;70451;51.226;6.412;2023-06-22T02:28:08;11.82;;;8.43;;
80985;SDS011;70451;51.226;6.412;2023-06-22T02:30:23;12.60;;;8.50;;
80985;SDS011;70451;51.226;6.412;2023-06-22T02:32:38;12.30;;;8.32;;
80985;SDS011;70451;51.226;6.412;2023-06-22T02:34:56;12.27;;;8.95;;
80985;SDS011;70451;51.226;6.412;2023-06-22T02:37:11;11.95;;;8.80;;
80985;SDS011;70451;51.226;6.412;2023-06-22T02:39:27;14.00;;;9.13;;
80985;SDS011;70451;51.226;6.412;2023-06-22T02:41:43;13.02;;;8.65;;
80985;SDS011;70451;51.226;6.412;2023-06-22T02:43:58;12.85;;;8.90;;
80985;SDS011;70451;51.226;6.412;2023-06-22T02:46:13;11.85;;;9.05;;
80985;SDS011;70451;51.226;6.412;2023-06-22T02:48:29;12.75;;;9.13;;
80985;SDS011;70451;51.226;6.412;2023-06-22T02:50:44;12.85;;;8.85;;
80985;SDS011;70451;51.226;6.412;2023-06-22T02:52:59;13.02;;;8.30;;
80985;SDS011;70451;51.226;6.412;2023-06-22T02:55:14;12.32;;;8.02;;
80985;SDS011;70451;51.226;6.412;2023-06-22T02:57:30;10.45;;;7.97;;
80985;SDS011;70451;51.226;6.412;2023-06-22T02:59:45;12.32;;;8.20;;
80985;SDS011;70451;51.226;6.412;2023-06-22T03:02:01;12.40;;;9.38;;
80985;SDS011;70451;51.226;6.412;2023-06-22T03:04:17;12.85;;;8.35;;
80985;SDS011;70451;51.226;6.412;2023-06-22T03:06:33;13.15;;;9.43;;
80985;SDS011;70451;51.226;6.412;2023-06-22T03:08:51;12.75;;;9.20;;
80985;SDS011;70451;51.226;6.412;2023-06-22T03:11:07;13.30;;;9.75;;
80985;SDS011;70451;51.226;6.412;2023-06-22T03:13:23;15.75;;;9.85;;
80985;SDS011;70451;51.226;6.412;2023-06-22T03:15:39;12.38;;;9.88;;
80985;SDS011;70451;51.226;6.412;2023-06-22T03:17:54;13.05;;;9.07;;
80985;SDS011;70451;51.226;6.412;2023-06-22T03:20:10;12.48;;;8.80;;
80985;SDS011;70451;51.226;6.412;2023-06-22T03:22:26;11.38;;;9.35;;
80985;SDS011;70451;51.226;6.412;2023-06-22T03:24:42;12.27;;;9.05;;
80985;SDS011;70451;51.226;6.412;2023-06-22T03:26:57;13.30;;;10.27;;
80985;SDS011;70451;51.226;6.412;2023-06-22T03:29:12;13.38;;;10.05;;
80985;SDS011;70451;51.226;6.412;2023-06-22T03:31:28;14.15;;;10.32;;
80985;SDS011;70451;51.226;6.412;2023-06-22T03:33:43;12.88;;;9.82;;
80985;SDS011;70451;51.226;6.412;2023-06-22T03:35:58;15.85;;;10.75;;
80985;SDS011;70451;51.226;6.412;2023-06-22T03:38:14;14.02;;;9.68;;
80985;SDS011;70451;51.226;6.412;2023-06-22T03:40:29;13.35;;;9.43;;
80985;SDS011;70451;51.226;6.412;2023-06-22T03:42:45;13.60;;;10.43;;
80985;SDS011;70451;51.226;6.412;2023-06-22T03:45:00;15.52;;;10.73;;
80985;SDS011;70451;51.226;6.412;2023-06-22T03:47:16;15.75;;;10.98;;
80985;SDS011;70451;51.226;6.412;2023-06-22T03:49:32;19.77;;;12.57;;
80985;SDS011;70451;51.226;6.412;2023-06-22T03:51:49;13.05;;;9.77;;
80985;SDS011;70451;51.226;6.412;2023-06-22T03:54:04;16.50;;;11.13;;
80985;SDS011;70451;51.226;6.412;2023-06-22T03:56:19;16.27;;;11.32;;
80985;SDS011;70451;51.226;6.412;2023-06-22T03:58:35;13.23;;;10.25;;
80985;SDS011;70451;51.226;6.412;2023-06-22T04:00:52;14.50;;;11.07;;
80985;SDS011;70451;51.226;6.412;2023-06-22T04:03:07;16.55;;;11.35;;
80985;SDS011;70451;51.226;6.412;2023-06-22T04:05:23;16.98;;;11.02;;
80985;SDS011;70451;51.226;6.412;2023-06-22T04:07:39;17.00;;;12.90;;
80985;SDS011;70451;51.226;6.412;2023-06-22T04:09:54;17.10;;;11.90;;
80985;SDS011;70451;51.226;6.412;2023-06-22T04:12:10;17.38;;;11.55;;
80985;SDS011;70451;51.226;6.412;2023-06-22T04:14:25;18.25;;;11.95;;
80985;SDS011;70451;51.226;6.412;2023-06-22T04:16:40;14.48;;;10.65;;
80985;SDS011;70451;51.226;6.412;2023-06-22T04:18:55;16.02;;;10.80;;
80985;SDS011;70451;51.226;6.412;2023-06-22T04:21:11;13.93;;;10.30;;
80985;SDS011;70451;51.226;6.412;2023-06-22T04:23:26;15.63;;;11.23;;
80985;SDS011;70451;51.226;6.412;2023-06-22T04:25:41;15.93;;;11.50;;
80985;SDS011;70451;51.226;6.412;2023-06-22T04:27:57;18.60;;;11.85;;
80985;SDS011;70451;51.226;6.412;2023-06-22T04:30:12;16.55;;;12.18;;
80985;SDS011;70451;51.226;6.412;2023-06-22T04:32:30;18.10;;;12.77;;
80985;SDS011;70451;51.226;6.412;2023-06-22T04:34:45;15.75;;;11.65;;
80985;SDS011;70451;51.226;6.412;2023-06-22T04:37:00;16.45;;;12.00;;
80985;SDS011;70451;51.226;6.412;2023-06-22T04:39:16;15.68;;;11.85;;
80985;SDS011;70451;51.226;6.412;2023-06-22T04:41:31;16.38;;;11.48;;
80985;SDS011;70451;51.226;6.412;2023-06-22T04:43:56;17.77;;;11.75;;
80985;SDS011;70451;51.226;6.412;2023-06-22T04:48:30;15.87;;;10.33;;
80985;SDS011;70451;51.226;6.412;2023-06-22T04:50:48;20.42;;;12.82;;
80985;SDS011;70451;51.226;6.412;2023-06-22T04:53:03;15.88;;;11.77;;
80985;SDS011;70451;51.226;6.412;2023-06-22T04:55:20;17.50;;;11.77;;
80985;SDS011;70451;51.226;6.412;2023-06-22T04:57:35;16.48;;;11.60;;
80985;SDS011;70451;51.226;6.412;2023-06-22T04:59:54;15.68;;;10.57;;
80985;SDS011;70451;51.226;6.412;2023-06-22T05:02:09;16.35;;;11.82;;
80985;SDS011;70451;51.226;6.412;2023-06-22T05:04:25;15.15;;;10.90;;
80985;SDS011;70451;51.226;6.412;2023-06-22T05:06:42;14.50;;;10.48;;
80985;SDS011;70451;51.226;6.412;2023-06-22T05:08:58;16.10;;;12.23;;
80985;SDS011;70451;51.226;6.412;2023-06-22T05:11:13;16.27;;;12.25;;
80985;SDS011;70451;51.226;6.412;2023-06-22T05:13:28;16.00;;;12.23;;
80985;SDS011;70451;51.226;6.412;2023-06-22T05:15:43;17.58;;;11.82;;
80985;SDS011;70451;51.226;6.412;2023-06-22T05:17:59;14.80;;;11.75;;
80985;SDS011;70451;51.226;6.412;2023-06-22T05:20:20;18.88;;;12.23;;
80985;SDS011;70451;51.226;6.412;2023-06-22T05:22:37;15.63;;;11.38;;
80985;SDS011;70451;51.226;6.412;2023-06-22T05:24:53;19.50;;;12.77;;
80985;SDS011;70451;51.226;6.412;2023-06-22T05:27:09;18.00;;;12.70;;
80985;SDS011;70451;51.226;6.412;2023-06-22T05:29:25;16.67;;;11.85;;
80985;SDS011;70451;51.226;6.412;2023-06-22T05:31:41;14.57;;;11.45;;
80985;SDS011;70451;51.226;6.412;2023-06-22T05:33:57;15.23;;;12.07;;
80985;SDS011;70451;51.226;6.412;2023-06-22T05:36:12;14.52;;;11.15;;
80985;SDS011;70451;51.226;6.412;2023-06-22T05:38:28;15.63;;;11.27;;
80985;SDS011;70451;51.226;6.412;2023-06-22T05:40:43;18.58;;;11.65;;
80985;SDS011;70451;51.226;6.412;2023-06-22T05:42:59;18.30;;;13.25;;
80985;SDS011;70451;51.226;6.412;2023-06-22T05:45:16;18.67;;;12.63;;
80985;SDS011;70451;51.226;6.412;2023-06-22T05:47:32;17.60;;;12.32;;
80985;SDS011;70451;51.226;6.412;2023-06-22T05:49:47;17.50;;;12.38;;
80985;SDS011;70451;51.226;6.412;2023-06-22T05:52:02;17.05;;;12.05;;
80985;SDS011;70451;51.226;6.412;2023-06-22T05:54:18;14.55;;;11.10;;
80985;SDS011;70451;51.226;6.412;2023-06-22T05:56:33;19.35;;;12.15;;
80985;SDS011;70451;51.226;6.412;2023-06-22T05:58:48;16.70;;;12.02;;
80985;SDS011;70451;51.226;6.412;2023-06-22T06:01:04;22.27;;;12.15;;
80985;SDS011;70451;51.226;6.412;2023-06-22T06:03:19;18.83;;;12.15;;
80985;SDS011;70451;51.226;6.412;2023-06-22T06:05:35;19.90;;;13.25;;
80985;SDS011;70451;51.226;6.412;2023-06-22T06:07:51;16.75;;;12.73;;
80985;SDS011;70451;51.226;6.412;2023-06-22T06:10:06;21.48;;;12.88;;
80985;SDS011;70451;51.226;6.412;2023-06-22T06:12:22;17.60;;;13.10;;
80985;SDS011;70451;51.226;6.412;2023-06-22T06:14:37;17.77;;;14.00;;
80985;SDS011;70451;51.226;6.412;2023-06-22T06:16:52;15.43;;;11.98;;
80985;SDS011;70451;51.226;6.412;2023-06-22T06:19:08;19.52;;;13.80;;
80985;SDS011;70451;51.226;6.412;2023-06-22T06:21:23;18.38;;;12.57;;
80985;SDS011;70451;51.226;6.412;2023-06-22T06:23:38;17.45;;;13.20;;
80985;SDS011;70451;51.226;6.412;2023-06-22T06:25:54;18.05;;;13.73;;
80985;SDS011;70451;51.226;6.412;2023-06-22T06:28:09;18.02;;;13.48;;
80985;SDS011;70451;51.226;6.412;2023-06-22T06:30:25;17.25;;;13.48;;
80985;SDS011;70451;51.226;6.412;2023-06-22T06:32:41;18.02;;;13.60;;
80985;SDS011;70451;51.226;6.412;2023-06-22T06:34:56;21.05;;;14.57;;
80985;SDS011;70451;51.226;6.412;2023-06-22T06:37:12;18.30;;;12.88;;
80985;SDS011;70451;51.226;6.412;2023-06-22T06:39:27;20.17;;;13.73;;
80985;SDS011;70451;51.226;6.412;2023-06-22T06:41:42;17.13;;;13.45;;
80985;SDS011;70451;51.226;6.412;2023-06-22T06:43:58;17.95;;;11.93;;
80985;SDS011;70451;51.226;6.412;2023-06-22T06:46:13;19.60;;;14.23;;
80985;SDS011;70451;51.226;6.412;2023-06-22T06:48:28;16.52;;;11.65;;
80985;SDS011;70451;51.226;6.412;2023-06-22T06:50:44;18.63;;;13.30;;
80985;SDS011;70451;51.226;6.412;2023-06-22T06:52:59;16.55;;;12.32;;
80985;SDS011;70451;51.226;6.412;2023-06-22T06:55:14;21.15;;;13.55;;
80985;SDS011;70451;51.226;6.412;2023-06-22T06:57:29;19.23;;;13.80;;
80985;SDS011;70451;51.226;6.412;2023-06-22T06:59:45;20.65;;;13.60;;
80985;SDS011;70451;51.226;6.412;2023-06-22T07:02:01;18.70;;;13.35;;
80985;SDS011;70451;51.226;6.412;2023-06-22T07:04:16;20.50;;;14.13;;
80985;SDS011;70451;51.226;6.412;2023-06-22T07:06:32;18.90;;;14.88;;
80985;SDS011;70451;51.226;6.412;2023-06-22T07:08:48;19.35;;;12.98;;
80985;SDS011;70451;51.226;6.412;2023-06-22T07:11:04;17.95;;;14.05;;
80985;SDS011;70451;51.226;6.412;2023-06-22T07:13:19;16.55;;;12.40;;
80985;SDS011;70451;51.226;6.412;2023-06-22T07:15:34;18.00;;;14.98;;
80985;SDS011;70451;51.226;6.412;2023-06-22T07:17:50;21.25;;;14.68;;
80985;SDS011;70451;51.226;6.412;2023-06-22T07:20:05;23.20;;;15.40;;
80985;SDS011;70451;51.226;6.412;2023-06-22T07:22:25;21.92;;;14.27;;
80985;SDS011;70451;51.226;6.412;2023-06-22T07:24:40;20.73;;;14.82;;
80985;SDS011;70451;51.226;6.412;2023-06-22T07:26:55;25.92;;;15.23;;
80985;SDS011;70451;51.226;6.412;2023-06-22T07:29:14;21.75;;;15.13;;
80985;SDS011;70451;51.226;6.412;2023-06-22T07:31:29;21.02;;;15.20;;
80985;SDS011;70451;51.226;6.412;2023-06-22T07:33:44;21.70;;;14.63;;
80985;SDS011;70451;51.226;6.412;2023-06-22T07:35:59;22.27;;;16.08;;
80985;SDS011;70451;51.226;6.412;2023-06-22T07:38:15;22.92;;;15.68;;
80985;SDS011;70451;51.226;6.412;2023-06-22T07:40:30;24.27;;;16.33;;
80985;SDS011;70451;51.226;6.412;2023-06-22T07:42:46;21.70;;;15.98;;
80985;SDS011;70451;51.226;6.412;2023-06-22T07:45:03;22.17;;;17.02;;
80985;SDS011;70451;51.226;6.412;2023-06-22T07:47:19;20.52;;;16.55;;
80985;SDS011;70451;51.226;6.412;2023-06-22T07:49:34;24.88;;;17.35;;
80985;SDS011;70451;51.226;6.412;2023-06-22T07:51:49;21.00;;;15.95;;
80985;SDS011;70451;51.226;6.412;2023-06-22T07:54:05;23.85;;;17.42;;
80985;SDS011;70451;51.226;6.412;2023-06-22T07:56:20;24.95;;;18.17;;
80985;SDS011;70451;51.226;6.412;2023-06-22T07:58:36;26.10;;;19.00;;
80985;SDS011;70451;51.226;6.412;2023-06-22T08:00:52;20.80;;;15.75;;
80985;SDS011;70451;51.226;6.412;2023-06-22T08:03:07;20.25;;;15.32;;
80985;SDS011;70451;51.226;6.412;2023-06-22T08:05:22;21.33;;;16.30;;
80985;SDS011;70451;51.226;6.412;2023-06-22T08:07:38;19.75;;;15.30;;
80985;SDS011;70451;51.226;6.412;2023-06-22T08:09:53;21.35;;;15.73;;
80985;SDS011;70451;51.226;6.412;2023-06-22T08:12:09;18.38;;;14.23;;
80985;SDS011;70451;51.226;6.412;2023-06-22T08:14:26;19.58;;;14.68;;
80985;SDS011;70451;51.226;6.412;2023-06-22T08:16:42;18.15;;;14.07;;
80985;SDS011;70451;51.226;6.412;2023-06-22T08:18:57;21.58;;;15.75;;
80985;SDS011;70451;51.226;6.412;2023-06-22T08:21:12;18.20;;;13.88;;
80985;SDS011;70451;51.226;6.412;2023-06-22T08:23:28;20.55;;;14.55;;
80985;SDS011;70451;51.226;6.412;2023-06-22T08:25:43;20.20;;;14.07;;
80985;SDS011;70451;51.226;6.412;2023-06-22T08:27:59;17.30;;;13.98;;
80985;SDS011;70451;51.226;6.412;2023-06-22T08:30:14;19.98;;;15.05;;
80985;SDS011;70451;51.226;6.412;2023-06-22T08:32:30;17.65;;;13.38;;
80985;SDS011;70451;51.226;6.412;2023-06-22T08:34:47;15.63;;;12.30;;
80985;SDS011;70451;51.226;6.412;2023-06-22T08:37:03;17.23;;;12.90;;
80985;SDS011;70451;51.226;6.412;2023-06-22T08:39:21;17.40;;;12.93;;
80985;SDS011;70451;51.226;6.412;2023-06-22T08:41:36;17.77;;;12.73;;
80985;SDS011;70451;51.226;6.412;2023-06-22T08:43:52;20.45;;;14.48;;
80985;SDS011;70451;51.226;6.412;2023-06-22T08:46:07;19.40;;;13.75;;
80985;SDS011;70451;51.226;6.412;2023-06-22T08:48:22;16.88;;;13.20;;
80985;SDS011;70451;51.226;6.412;2023-06-22T08:50:38;16.95;;;12.75;;
80985;SDS011;70451;51.226;6.412;2023-06-22T08:52:55;13.75;;;11.05;;
80985;SDS011;70451;51.226;6.412;2023-06-22T08:55:10;16.50;;;12.50;;
80985;SDS011;70451;51.226;6.412;2023-06-22T08:57:26;16.92;;;12.90;;
80985;SDS011;70451;51.226;6.412;2023-06-22T08:59:42;17.80;;;12.18;;
80985;SDS011;70451;51.226;6.412;2023-06-22T09:01:57;15.93;;;12.20;;
80985;SDS011;70451;51.226;6.412;2023-06-22T09:04:13;20.15;;;12.93;;
80985;SDS011;70451;51.226;6.412;2023-06-22T09:06:28;17.38;;;12.35;;
80985;SDS011;70451;51.226;6.412;2023-06-22T09:08:46;16.73;;;11.48;;
80985;SDS011;70451;51.226;6.412;2023-06-22T09:11:02;13.65;;;11.27;;
80985;SDS011;70451;51.226;6.412;2023-06-22T09:13:17;17.98;;;12.60;;
80985;SDS011;70451;51.226;6.412;2023-06-22T09:15:33;14.40;;;11.65;;
80985;SDS011;70451;51.226;6.412;2023-06-22T09:17:49;17.48;;;11.88;;
80985;SDS011;70451;51.226;6.412;2023-06-22T09:20:04;16.65;;;12.80;;
80985;SDS011;70451;51.226;6.412;2023-06-22T09:22:20;15.80;;;11.88;;
80985;SDS011;70451;51.226;6.412;2023-06-22T09:24:36;13.35;;;11.02;;
80985;SDS011;70451;51.226;6.412;2023-06-22T09:26:51;15.90;;;11.32;;
80985;SDS011;70451;51.226;6.412;2023-06-22T09:29:07;13.68;;;11.02;;
80985;SDS011;70451;51.226;6.412;2023-06-22T09:31:22;17.48;;;10.68;;
80985;SDS011;70451;51.226;6.412;2023-06-22T09:33:40;14.95;;;10.95;;
80985;SDS011;70451;51.226;6.412;2023-06-22T09:35:55;14.05;;;10.85;;
80985;SDS011;70451;51.226;6.412;2023-06-22T09:38:11;14.00;;;10.18;;
80985;SDS011;70451;51.226;6.412;2023-06-22T09:40:26;15.00;;;10.77;;
80985;SDS011;70451;51.226;6.412;2023-06-22T09:42:41;14.30;;;11.35;;
80985;SDS011;70451;51.226;6.412;2023-06-22T09:44:57;15.02;;;11.63;;
80985;SDS011;70451;51.226;6.412;2023-06-22T09:47:12;13.80;;;10.45;;
80985;SDS011;70451;51.226;6.412;2023-06-22T09:49:28;13.95;;;10.95;;
80985;SDS011;70451;51.226;6.412;2023-06-22T09:51:43;15.02;;;10.63;;
80985;SDS011;70451;51.226;6.412;2023-06-22T09:53:58;16.02;;;12.25;;
80985;SDS011;70451;51.226;6.412;2023-06-22T09:56:13;17.10;;;12.27;;
80985;SDS011;70451;51.226;6.412;2023-06-22T09:58:30;14.57;;;10.90;;
80985;SDS011;70451;51.226;6.412;2023-06-22T10:00:45;16.80;;;11.85;;
80985;SDS011;70451;51.226;6.412;2023-06-22T10:03:00;14.40;;;11.75;;
80985;SDS011;70451;51.226;6.412;2023-06-22T10:05:16;17.00;;;11.48;;
80985;SDS011;70451;51.226;6.412;2023-06-22T10:07:31;16.98;;;12.40;;
80985;SDS011;70451;51.226;6.412;2023-06-22T10:09:46;15.40;;;11.45;;
80985;SDS011;70451;51.226;6.412;2023-06-22T10:12:02;13.95;;;9.57;;
80985;SDS011;70451;51.226;6.412;2023-06-22T10:14:17;11.73;;;9.07;;
80985;SDS011;70451;51.226;6.412;2023-06-22T10:16:33;11.75;;;8.45;;
80985;SDS011;70451;51.226;6.412;2023-06-22T10:18:50;10.18;;;7.97;;
80985;SDS011;70451;51.226;6.412;2023-06-22T10:21:05;9.38;;;7.78;;
80985;SDS011;70451;51.226;6.412;2023-06-22T10:23:21;8.75;;;7.68;;
80985;SDS011;70451;51.226;6.412;2023-06-22T10:25:36;11.70;;;9.15;;
80985;SDS011;70451;51.226;6.412;2023-06-22T10:27:51;13.10;;;9.38;;
80985;SDS011;70451;51.226;6.412;2023-06-22T10:30:07;12.35;;;9.32;;
80985;SDS011;70451;51.226;6.412;2023-06-22T10:32:24;19.17;;;13.13;;
80985;SDS011;70451;51.226;6.412;2023-06-22T10:34:39;16.05;;;13.10;;
80985;SDS011;70451;51.226;6.412;2023-06-22T10:36:54;15.07;;;10.27;;
80985;SDS011;70451;51.226;6.412;2023-06-22T10:39:10;14.27;;;10.02;;
80985;SDS011;70451;51.226;6.412;2023-06-22T10:41:25;16.15;;;12.07;;
80985;SDS011;70451;51.226;6.412;2023-06-22T10:43:40;13.20;;;10.30;;
80985;SDS011;70451;51.226;6.412;2023-06-22T10:45:55;20.02;;;14.23;;
80985;SDS011;70451;51.226;6.412;2023-06-22T10:48:11;17.13;;;12.75;;
80985;SDS011;70451;51.226;6.412;2023-06-22T10:50:26;19.67;;;12.40;;
80985;SDS011;70451;51.226;6.412;2023-06-22T10:52:41;24.75;;;15.73;;
80985;SDS011;70451;51.226;6.412;2023-06-22T10:54:57;26.13;;;17.38;;
80985;SDS011;70451;51.226;6.412;2023-06-22T10:57:13;23.90;;;16.25;;
80985;SDS011;70451;51.226;6.412;2023-06-22T10:59:29;28.30;;;17.30;;
80985;SDS011;70451;51.226;6.412;2023-06-22T11:01:44;27.70;;;19.00;;
80985;SDS011;70451;51.226;6.412;2023-06-22T11:03:59;32.03;;;20.35;;
80985;SDS011;70451;51.226;6.412;2023-06-22T11:06:15;37.88;;;24.10;;
80985;SDS011;70451;51.226;6.412;2023-06-22T11:08:30;37.80;;;22.90;;
80985;SDS011;70451;51.226;6.412;2023-06-22T11:10:45;37.80;;;24.58;;
80985;SDS011;70451;51.226;6.412;2023-06-22T11:13:01;33.08;;;23.27;;
80985;SDS011;70451;51.226;6.412;2023-06-22T11:15:17;39.22;;;24.50;;
80985;SDS011;70451;51.226;6.412;2023-06-22T11:17:33;39.28;;;26.80;;
80985;SDS011;70451;51.226;6.412;2023-06-22T11:19:48;43.35;;;28.48;;
80985;SDS011;70451;51.226;6.412;2023-06-22T11:22:03;41.58;;;28.08;;
80985;SDS011;70451;51.226;6.412;2023-06-22T11:24:19;36.20;;;24.55;;
80985;SDS011;70451;51.226;6.412;2023-06-22T11:26:34;34.30;;;24.88;;
80985;SDS011;70451;51.226;6.412;2023-06-22T11:28:50;34.40;;;24.33;;
80985;SDS011;70451;51.226;6.412;2023-06-22T11:31:05;38.60;;;26.52;;
80985;SDS011;70451;51.226;6.412;2023-06-22T11:33:22;41.78;;;27.05;;
80985;SDS011;70451;51.226;6.412;2023-06-22T11:35:37;39.60;;;26.70;;
80985;SDS011;70451;51.226;6.412;2023-06-22T11:37:52;34.90;;;25.15;;
80985;SDS011;70451;51.226;6.412;2023-06-22T11:40:08;36.40;;;25.45;;
80985;SDS011;70451;51.226;6.412;2023-06-22T11:42:24;40.33;;;26.77;;
80985;SDS011;70451;51.226;6.412;2023-06-22T11:44:40;41.75;;;26.45;;
80985;SDS011;70451;51.226;6.412;2023-06-22T11:46:55;34.67;;;23.92;;
80985;SDS011;70451;51.226;6.412;2023-06-22T11:49:10;32.67;;;23.27;;
80985;SDS011;70451;51.226;6.412;2023-06-22T11:51:26;37.97;;;27.17;;
80985;SDS011;70451;51.226;6.412;2023-06-22T11:53:41;33.50;;;23.88;;
80985;SDS011;70451;51.226;6.412;2023-06-22T11:55:56;37.47;;;25.88;;
80985;SDS011;70451;51.226;6.412;2023-06-22T11:58:12;35.72;;;25.65;;
80985;SDS011;70451;51.226;6.412;2023-06-22T12:00:27;36.25;;;25.55;;
80985;SDS011;70451;51.226;6.412;2023-06-22T12:02:42;28.63;;;21.33;;
80985;SDS011;70451;51.226;6.412;2023-06-22T12:04:59;30.95;;;21.75;;
80985;SDS011;70451;51.226;6.412;2023-06-22T12:07:15;31.70;;;22.63;;
80985;SDS011;70451;51.226;6.412;2023-06-22T12:09:30;32.60;;;23.08;;
80985;SDS011;70451;51.226;6.412;2023-06-22T12:11:46;38.05;;;26.25;;
80985;SDS011;70451;51.226;6.412;2023-06-22T12:14:01;42.13;;;27.38;;
80985;SDS011;70451;51.226;6.412;2023-06-22T12:16:17;34.53;;;23.25;;
80985;SDS011;70451;51.226;6.412;2023-06-22T12:18:32;36.35;;;26.27;;
80985;SDS011;70451;51.226;6.412;2023-06-22T12:20:48;35.05;;;23.98;;
80985;SDS011;70451;51.226;6.412;2023-06-22T12:23:03;34.45;;;25.02;;
80985;SDS011;70451;51.226;6.412;2023-06-22T12:25:18;32.40;;;21.55;;
80985;SDS011;70451;51.226;6.412;2023-06-22T12:27:34;28.15;;;19.98;;
80985;SDS011;70451;51.226;6.412;2023-06-22T12:29:50;27.42;;;21.33;;
80985;SDS011;70451;51.226;6.412;2023-06-22T12:32:06;30.02;;;21.23;;
80985;SDS011;70451;51.226;6.412;2023-06-22T12:34:21;30.05;;;20.55;;
80985;SDS011;70451;51.226;6.412;2023-06-22T12:36:37;26.60;;;19.25;;
80985;SDS011;70451;51.226;6.412;2023-06-22T12:38:52;31.92;;;20.45;;
80985;SDS011;70451;51.226;6.412;2023-06-22T12:41:07;28.17;;;18.40;;
80985;SDS011;70451;51.226;6.412;2023-06-22T12:43:23;27.65;;;19.10;;
80985;SDS011;70451;51.226;6.412;2023-06-22T12:45:38;32.00;;;21.52;;
80985;SDS011;70451;51.226;6.412;2023-06-22T12:47:53;34.85;;;23.27;;
80985;SDS011;70451;51.226;6.412;2023-06-22T12:50:09;35.25;;;21.98;;
80985;SDS011;70451;51.226;6.412;2023-06-22T12:52:24;29.55;;;22.35;;
80985;SDS011;70451;51.226;6.412;2023-06-22T12:54:40;34.58;;;24.40;;
80985;SDS011;70451;51.226;6.412;2023-06-22T12:56:55;35.13;;;24.60;;
80985;SDS011;70451;51.226;6.412;2023-06-22T12:59:11;34.67;;;24.42;;
80985;SDS011;70451;51.226;6.412;2023-06-22T13:01:26;34.72;;;24.30;;
80985;SDS011;70451;51.226;6.412;2023-06-22T13:03:41;35.88;;;23.15;;
80985;SDS011;70451;51.226;6.412;2023-06-22T13:05:57;39.05;;;24.95;;
80985;SDS011;70451;51.226;6.412;2023-06-22T13:08:12;36.00;;;25.05;;
80985;SDS011;70451;51.226;6.412;2023-06-22T13:10:28;39.67;;;27.60;;
80985;SDS011;70451;51.226;6.412;2023-06-22T13:12:43;36.50;;;24.95;;
80985;SDS011;70451;51.226;6.412;2023-06-22T13:14:59;37.25;;;24.75;;
80985;SDS011;70451;51.226;6.412;2023-06-22T13:17:14;35.03;;;24.95;;
80985;SDS011;70451;51.226;6.412;2023-06-22T13:19:30;38.42;;;25.60;;
80985;SDS011;70451;51.226;6.412;2023-06-22T13:21:47;39.15;;;25.90;;
80985;SDS011;70451;51.226;6.412;2023-06-22T13:24:02;38.15;;;25.50;;
80985;SDS011;70451;51.226;6.412;2023-06-22T13:26:18;38.20;;;24.10;;
80985;SDS011;70451;51.226;6.412;2023-06-22T13:28:33;37.03;;;26.05;;
80985;SDS011;70451;51.226;6.412;2023-06-22T13:30:49;38.25;;;26.15;;
80985;SDS011;70451;51.226;6.412;2023-06-22T13:33:04;39.28;;;27.20;;